Time;durP1;ratioP1;P1;durP2;ratioP2;P2;SDS_P1;SDS_P2;PMS_P1;PMS_P2;Temp;Humidity;BMP_temperature;BMP_pressure;BME280_temperature;BME280_humidity;BME280_pressure;Samples;Min_cycle;Max_cycle;Signal;HPM_P1;HPM_P2
2021/05/02 00:00:35;;;;;;;28.48;21.27;;;;;;;7.34;100.00;102167.25;5010656;28;20034;-63
2021/05/02 00:03:03;;;;;;;26.98;20.85;;;;;;;7.31;100.00;102168.47;5010979;28;20460;-64
2021/05/02 00:05:31;;;;;;;26.65;21.42;;;;;;;7.28;100.00;102159.84;5010662;28;20038;-63
2021/05/02 00:07:58;;;;;;;29.60;21.95;;;;;;;7.25;100.00;102167.31;5010716;28;20057;-60
2021/05/02 00:10:26;;;;;;;28.65;21.33;;;;;;;7.25;100.00;102171.94;5008271;28;20042;-63
2021/05/02 00:12:53;;;;;;;29.60;22.80;;;;;;;7.24;100.00;102165.66;5010675;28;20088;-61
2021/05/02 00:15:21;;;;;;;28.60;21.67;;;;;;;7.25;100.00;102171.94;5010578;28;20042;-64
2021/05/02 00:17:49;;;;;;;30.65;22.40;;;;;;;7.27;100.00;102167.13;5010537;28;20041;-64
2021/05/02 00:20:17;;;;;;;30.67;22.90;;;;;;;7.29;100.00;102167.81;5010408;28;20401;-63
2021/05/02 00:22:45;;;;;;;31.85;23.25;;;;;;;7.31;100.00;102165.75;5010423;28;20045;-62
2021/05/02 00:25:13;;;;;;;29.27;21.92;;;;;;;7.33;100.00;102166.41;5012984;28;20044;-62
2021/05/02 00:27:39;;;;;;;30.38;23.35;;;;;;;7.36;100.00;102157.88;5014079;28;20030;-64
2021/05/02 00:30:06;;;;;;;29.65;23.75;;;;;;;7.38;100.00;102155.81;5014061;28;20042;-62
2021/05/02 00:32:32;;;;;;;32.13;23.98;;;;;;;7.38;100.00;102161.25;5014075;28;20176;-62
2021/05/02 00:34:59;;;;;;;28.83;22.38;;;;;;;7.38;100.00;102155.81;5013744;28;20476;-63
2021/05/02 00:37:25;;;;;;;29.35;22.52;;;;;;;7.36;100.00;102160.59;5013875;28;20044;-63
2021/05/02 00:39:51;;;;;;;30.38;23.33;;;;;;;7.35;100.00;102160.78;5013813;28;20120;-64
2021/05/02 00:42:21;;;;;;;32.45;21.88;;;;;;;7.32;100.00;102151.13;5013854;28;20145;-62
2021/05/02 00:44:49;;;;;;;29.33;21.90;;;;;;;7.32;100.00;102162.00;5013791;28;20038;-60
2021/05/02 00:47:17;;;;;;;30.67;23.13;;;;;;;7.31;100.00;102165.75;5013768;28;20111;-63
2021/05/02 00:49:57;;;;;;;34.22;24.25;;;;;;;7.30;100.00;102164.06;5013689;28;20546;-62
2021/05/02 00:52:44;;;;;;;31.88;23.23;;;;;;;7.27;100.00;102159.00;5013613;28;20552;-62
2021/05/02 00:55:13;;;;;;;31.67;24.27;;;;;;;7.25;100.00;102161.91;5013586;28;20069;-63
2021/05/02 00:57:53;;;;;;;30.83;23.17;;;;;;;7.23;100.00;102168.56;5027847;28;20527;-64
2021/05/02 01:00:20;;;;;;;32.20;24.05;;;;;;;7.17;100.00;102169.31;5013534;28;20091;-63
2021/05/02 01:02:49;;;;;;;30.50;22.50;;;;;;;7.14;100.00;102164.25;5013478;28;20396;-63
2021/05/02 01:05:15;;;;;;;30.38;23.58;;;;;;;7.12;100.00;102167.16;5013587;28;20505;-62
2021/05/02 01:07:43;;;;;;;32.78;23.48;;;;;;;7.08;100.00;102170.41;5013293;28;20508;-62
2021/05/02 01:10:16;;;;;;;31.33;24.50;;;;;;;7.05;100.00;102166.22;5008825;28;20445;-62
2021/05/02 01:12:47;;;;;;;34.17;23.67;;;;;;;7.01;100.00;102174.94;5013154;28;20567;-64
2021/05/02 01:15:23;;;;;;;29.80;22.75;;;;;;;6.98;100.00;102169.88;5013119;28;20065;-62
2021/05/02 01:17:55;;;;;;;30.48;23.60;;;;;;;6.93;100.00;102171.25;5013263;28;20030;-62
2021/05/02 01:20:21;;;;;;;34.05;23.50;;;;;;;6.91;100.00;102170.59;5013114;28;20030;-63
2021/05/02 01:22:51;;;;;;;32.53;24.13;;;;;;;6.91;100.00;102170.59;5013071;28;20060;-63
2021/05/02 01:25:19;;;;;;;35.60;24.35;;;;;;;6.90;100.00;102171.63;5013254;28;20046;-63
2021/05/02 01:27:49;;;;;;;31.88;24.05;;;;;;;6.87;100.00;102172.00;5012906;28;20037;-63
2021/05/02 01:30:16;;;;;;;34.20;24.05;;;;;;;6.84;100.00;102180.53;5027245;28;20481;-62
2021/05/02 01:32:42;;;;;;;32.65;24.70;;;;;;;6.81;100.00;102185.50;5012617;28;20042;-64
2021/05/02 01:35:08;;;;;;;32.63;25.25;;;;;;;6.77;100.00;102185.03;5012392;28;20554;-61
2021/05/02 01:37:34;;;;;;;30.98;25.27;;;;;;;6.74;100.00;102190.78;5010965;28;20049;-64
2021/05/02 01:40:00;;;;;;;31.35;24.20;;;;;;;6.72;100.00;102182.00;5012949;28;20558;-63
2021/05/02 01:42:26;;;;;;;36.78;25.67;;;;;;;6.70;100.00;102189.47;5012762;28;20042;-62
2021/05/02 01:44:51;;;;;;;35.55;26.27;;;;;;;6.67;100.00;102189.84;5012509;28;20514;-61
2021/05/02 01:47:20;;;;;;;35.67;25.58;;;;;;;6.66;100.00;102188.16;5012586;28;20049;-60
2021/05/02 01:50:02;;;;;;;34.78;26.45;;;;;;;6.64;100.00;102182.06;5012539;28;20045;-62
2021/05/02 01:52:30;;;;;;;34.58;26.10;;;;;;;6.62;100.00;102186.84;5012568;28;20526;-62
2021/05/02 01:54:57;;;;;;;37.67;26.30;;;;;;;6.57;100.00;102181.94;5012407;28;20037;-65
2021/05/02 01:57:26;;;;;;;35.67;26.40;;;;;;;6.53;100.00;102182.50;5012653;28;20038;-62
2021/05/02 01:59:55;;;;;;;34.38;25.30;;;;;;;6.51;100.00;102190.00;5012402;28;20116;-63
2021/05/02 02:02:27;;;;;;;36.55;25.88;;;;;;;6.47;100.00;102191.38;5012238;28;20496;-63
2021/05/02 02:04:56;;;;;;;36.50;25.38;;;;;;;6.45;100.00;102196.16;5010839;28;20029;-61
2021/05/02 02:07:22;;;;;;;35.13;27.17;;;;;;;6.43;100.00;102195.50;5012170;28;20064;-62
2021/05/02 02:09:49;;;;;;;35.25;27.10;;;;;;;6.40;100.00;102193.13;5012140;28;20107;-65
2021/05/02 02:12:15;;;;;;;36.15;27.08;;;;;;;6.38;100.00;102189.75;5012135;28;20071;-62
2021/05/02 02:14:41;;;;;;;36.47;26.40;;;;;;;6.33;100.00;102187.59;5012398;28;20437;-64
2021/05/02 02:17:08;;;;;;;36.88;28.10;;;;;;;6.29;100.00;102188.97;5012116;28;20125;-65
2021/05/02 02:19:35;;;;;;;37.95;26.25;;;;;;;6.24;100.00;102189.50;5011996;28;20030;-63
2021/05/02 02:22:01;;;;;;;38.70;27.70;;;;;;;6.20;100.00;102199.03;5010444;28;20399;-62
2021/05/02 02:24:41;;;;;;;36.65;26.05;;;;;;;6.15;100.00;102190.59;5011830;28;20499;-64
2021/05/02 02:27:08;;;;;;;37.55;26.70;;;;;;;6.11;100.00;102189.28;5011918;28;20044;-64
2021/05/02 02:29:46;;;;;;;38.40;27.20;;;;;;;6.07;100.00;102196.06;5011827;28;20049;-62
2021/05/02 02:32:14;;;;;;;36.95;25.73;;;;;;;6.04;100.00;102193.72;5012085;28;20680;-62
2021/05/02 02:34:47;;;;;;;36.88;27.08;;;;;;;5.99;100.00;102194.25;5011793;28;20057;-64
2021/05/02 02:37:21;;;;;;;37.30;26.00;;;;;;;5.97;100.00;102192.75;5011668;28;20033;-64
2021/05/02 02:39:52;;;;;;;37.53;26.83;;;;;;;5.95;100.00;102194.81;5011731;28;20038;-63
2021/05/02 02:42:21;;;;;;;36.10;25.75;;;;;;;5.92;100.00;102200.59;5011619;28;20029;-64
2021/05/02 02:44:54;;;;;;;38.30;27.20;;;;;;;5.90;100.00;102197.19;5011775;28;20440;-61
2021/05/02 02:47:22;;;;;;;35.95;26.42;;;;;;;5.88;100.00;102199.19;5011374;28;20053;-63
2021/05/02 02:49:53;;;;;;;40.70;27.20;;;;;;;5.87;100.00;102197.50;5011472;28;20092;-62
2021/05/02 02:52:23;;;;;;;33.28;25.42;;;;;;;5.85;100.00;102200.41;5011605;28;20038;-65
2021/05/02 02:55:03;;;;;;;37.42;27.38;;;;;;;5.85;100.00;102204.97;5011243;28;20044;-62
2021/05/02 02:57:32;;;;;;;36.33;26.17;;;;;;;5.83;100.00;102202.44;5011367;28;20480;-64
2021/05/02 03:00:01;;;;;;;38.47;26.83;;;;;;;5.82;100.00;102199.91;5011571;28;20040;-63
2021/05/02 03:02:30;;;;;;;36.42;26.40;;;;;;;5.80;100.00;102200.09;5011339;28;20404;-64
2021/05/02 03:04:58;;;;;;;38.10;26.05;;;;;;;5.79;100.00;102194.84;5009870;28;20665;-64
2021/05/02 03:07:30;;;;;;;37.05;25.98;;;;;;;5.77;100.00;102207.75;5011255;28;20057;-64
2021/05/02 03:09:57;;;;;;;38.15;26.60;;;;;;;5.77;100.00;102207.75;5011106;28;20484;-62
2021/05/02 03:12:24;;;;;;;38.25;27.08;;;;;;;5.75;100.00;102213.34;5011039;28;20046;-62
2021/05/02 03:14:57;;;;;;;39.40;26.75;;;;;;;5.75;100.00;102211.47;5011078;28;20454;-63
2021/05/02 03:17:30;;;;;;;41.03;27.63;;;;;;;5.75;100.00;102207.94;5025830;28;20084;-64
2021/05/02 03:20:12;;;;;;;36.67;27.48;;;;;;;5.77;100.00;102218.59;5011181;28;20041;-61
2021/05/02 03:22:40;;;;;;;38.67;27.67;;;;;;;5.75;100.00;102206.06;5011048;28;20040;-62
2021/05/02 03:25:10;;;;;;;38.50;28.75;;;;;;;5.79;100.00;102216.53;5010957;28;20045;-64
2021/05/02 03:27:56;;;;;;;42.85;29.67;;;;;;;5.78;100.00;102215.72;5011059;28;20550;-64
2021/05/02 03:30:23;;;;;;;41.67;28.52;;;;;;;5.79;100.00;102216.53;5010858;28;20045;-64
2021/05/02 03:32:51;;;;;;;42.70;29.30;;;;;;;5.75;100.00;102221.50;5010822;28;20042;-62
2021/05/02 03:35:19;;;;;;;38.65;27.38;;;;;;;5.73;100.00;102224.38;5010971;28;20038;-64
2021/05/02 03:37:54;;;;;;;38.85;27.92;;;;;;;5.68;100.00;102218.63;5011014;28;20072;-63
2021/05/02 03:40:23;;;;;;;38.50;27.27;;;;;;;5.66;100.00;102222.53;5009772;28;20472;-63
2021/05/02 03:42:48;;;;;;;39.58;27.73;;;;;;;5.61;100.00;102223.06;5010713;28;20042;-64
2021/05/02 03:45:14;;;;;;;41.58;28.90;;;;;;;5.57;100.00;102221.72;5010929;28;20100;-62
2021/05/02 03:47:40;;;;;;;41.72;29.05;;;;;;;5.54;100.00;102224.78;5009520;28;20099;-62
2021/05/02 03:50:06;;;;;;;39.88;29.38;;;;;;;5.51;100.00;102225.13;5010690;28;20042;-63
2021/05/02 03:52:32;;;;;;;38.72;27.30;;;;;;;5.49;100.00;102231.75;5010828;28;20492;-60
2021/05/02 03:54:57;;;;;;;39.05;28.65;;;;;;;5.46;100.00;102222.09;5010599;28;20153;-64
2021/05/02 03:57:23;;;;;;;43.08;29.10;;;;;;;5.44;100.00;102229.56;5009582;28;20042;-63
2021/05/02 03:59:49;;;;;;;41.90;29.33;;;;;;;5.41;100.00;102229.91;5012716;28;20046;-64
2021/05/02 04:02:15;;;;;;;40.70;28.88;;;;;;;5.39;100.00;102226.53;5014618;28;20045;-61
2021/05/02 04:04:42;;;;;;;42.58;29.00;;;;;;;5.38;100.00;102230.25;5014465;28;20034;-65
2021/05/02 04:07:12;;;;;;;44.80;30.20;;;;;;;5.35;100.00;102225.19;5014395;28;20044;-63
2021/05/02 04:09:49;;;;;;;39.45;27.73;;;;;;;5.34;100.00;102228.91;5011924;28;20034;-61
2021/05/02 04:12:15;;;;;;;38.53;28.20;;;;;;;5.32;100.00;102228.22;5014369;28;20034;-60
2021/05/02 04:14:41;;;;;;;37.17;27.80;;;;;;;5.29;100.00;102226.72;5014378;28;20033;-64
2021/05/02 04:17:15;;;;;;;41.17;29.10;;;;;;;5.29;100.00;102231.31;5014505;28;20037;-62
2021/05/02 04:19:43;;;;;;;42.70;29.10;;;;;;;5.26;100.00;102231.66;5014303;28;20046;-63
2021/05/02 04:22:10;;;;;;;38.28;27.40;;;;;;;5.25;100.00;102229.97;5014226;28;20145;-63
2021/05/02 04:24:36;;;;;;;42.00;28.38;;;;;;;5.25;100.00;102232.66;5014054;28;20038;-63
2021/05/02 04:27:02;;;;;;;37.25;27.10;;;;;;;5.23;100.00;102237.41;5014042;28;20807;-62
2021/05/02 04:29:30;;;;;;;39.08;27.98;;;;;;;5.21;100.00;102245.72;5014054;28;20519;-64
2021/05/02 04:31:57;;;;;;;36.03;25.73;;;;;;;5.19;100.00;102247.72;5013991;28;20037;-61
2021/05/02 04:34:23;;;;;;;41.28;26.88;;;;;;;5.17;100.00;102243.50;5013860;28;20068;-61
2021/05/02 04:36:50;;;;;;;40.90;27.38;;;;;;;5.15;100.00;102249.94;5013787;28;20034;-62
2021/05/02 04:39:20;;;;;;;37.75;27.00;;;;;;;5.14;100.00;102250.13;5014004;28;20515;-62
2021/05/02 04:41:47;;;;;;;36.65;26.35;;;;;;;5.12;100.00;102253.00;5013820;28;20042;-61
2021/05/02 04:44:13;;;;;;;37.33;26.02;;;;;;;5.11;100.00;102262.16;5013636;28;20037;-63
2021/05/02 04:46:40;;;;;;;34.78;25.45;;;;;;;5.11;100.00;102262.16;5013683;28;20397;-64
2021/05/02 04:49:07;;;;;;;37.85;26.58;;;;;;;5.09;100.00;102256.06;5013854;28;20049;-64
2021/05/02 04:51:34;;;;;;;37.25;26.73;;;;;;;5.09;100.00;102266.88;5013443;28;20062;-64
2021/05/02 04:54:00;;;;;;;39.10;27.08;;;;;;;5.09;100.00;102268.75;5013532;28;20038;-61
2021/05/02 04:56:26;;;;;;;36.58;25.95;;;;;;;5.08;100.00;102276.03;5013764;28;20045;-61
2021/05/02 04:58:51;;;;;;;37.53;26.25;;;;;;;5.10;100.00;102274.00;5013491;28;20124;-63
2021/05/02 05:01:17;;;;;;;37.60;25.38;;;;;;;5.10;100.00;102271.28;5013382;28;20050;-62
2021/05/02 05:03:45;;;;;;;36.35;25.70;;;;;;;5.10;100.00;102271.28;5013203;28;20121;-63
2021/05/02 05:06:11;;;;;;;36.78;27.20;;;;;;;5.10;100.00;102276.69;5013383;28;20108;-63
2021/05/02 05:08:37;;;;;;;37.85;26.80;;;;;;;5.11;100.00;102283.81;5013417;28;20481;-62
2021/05/02 05:11:03;;;;;;;35.15;27.02;;;;;;;5.14;100.00;102288.88;5012902;28;20072;-63
2021/05/02 05:13:28;;;;;;;38.40;27.27;;;;;;;5.17;100.00;102286.84;5013416;28;20452;-64
2021/05/02 05:15:55;;;;;;;40.90;27.30;;;;;;;5.21;100.00;102293.63;5013267;28;20046;-62
2021/05/02 05:18:21;;;;;;;37.75;27.45;;;;;;;5.23;100.00;102297.00;5013103;28;20045;-61
2021/05/02 05:20:47;;;;;;;35.30;26.67;;;;;;;5.26;100.00;102299.38;5013553;28;20087;-64
2021/05/02 05:23:12;;;;;;;36.92;25.83;;;;;;;5.25;100.00;102295.81;5012965;28;20053;-63
2021/05/02 05:25:38;;;;;;;35.08;25.90;;;;;;;5.23;100.00;102300.56;5013192;28;20050;-62
2021/05/02 05:28:04;;;;;;;39.85;28.20;;;;;;;5.20;100.00;102300.03;5013008;28;20048;-64
2021/05/02 05:30:29;;;;;;;36.85;26.88;;;;;;;5.19;100.00;102310.03;5012923;28;20046;-60
2021/05/02 05:33:05;;;;;;;36.03;26.83;;;;;;;5.17;100.00;102312.06;5012895;28;20131;-60
2021/05/02 05:35:31;;;;;;;37.35;26.52;;;;;;;5.18;100.00;102312.91;5012852;28;20495;-63
2021/05/02 05:37:57;;;;;;;40.83;27.30;;;;;;;5.19;100.00;102311.88;5012716;28;20037;-65
2021/05/02 05:40:27;;;;;;;35.35;25.52;;;;;;;5.20;100.00;102309.00;5011499;28;20036;-64
2021/05/02 05:42:53;;;;;;;35.92;26.17;;;;;;;5.22;100.00;102323.25;5012698;28;20128;-64
2021/05/02 05:45:20;;;;;;;35.35;25.23;;;;;;;5.21;100.00;102313.44;5012567;28;20059;-62
2021/05/02 05:47:49;;;;;;;35.22;25.63;;;;;;;5.23;100.00;102318.69;5012600;28;20042;-62
2021/05/02 05:50:15;;;;;;;40.13;27.35;;;;;;;5.23;100.00;102319.53;5012553;28;20037;-65
2021/05/02 05:52:42;;;;;;;38.42;28.25;;;;;;;5.25;100.00;102327.47;5012429;28;20033;-63
2021/05/02 05:55:09;;;;;;;38.35;26.45;;;;;;;5.26;100.00;102326.47;5012743;28;20037;-62
2021/05/02 05:57:36;;;;;;;34.88;26.40;;;;;;;5.30;100.00;102335.94;5012467;28;20041;-64
2021/05/02 06:00:05;;;;;;;42.50;28.48;;;;;;;5.34;100.00;102327.28;5012506;28;20368;-61
2021/05/02 06:02:30;;;;;;;35.03;25.58;;;;;;;5.39;100.00;102329.50;5012306;28;20029;-62
2021/05/02 06:04:56;;;;;;;35.20;26.52;;;;;;;5.44;100.00;102337.94;5012162;28;20033;-64
2021/05/02 06:07:22;;;;;;;33.60;24.70;;;;;;;5.47;100.00;102332.19;5012308;28;20041;-62
2021/05/02 06:09:48;;;;;;;35.63;23.73;;;;;;;5.51;100.00;102340.81;5012143;28;20065;-63
2021/05/02 06:12:13;;;;;;;32.67;23.63;;;;;;;5.55;100.00;102336.72;5012026;28;20472;-63
2021/05/02 06:14:41;;;;;;;32.92;24.67;;;;;;;5.59;100.00;102336.22;5012083;28;20042;-64
2021/05/02 06:17:06;;;;;;;31.33;23.80;;;;;;;5.63;100.00;102347.56;5012120;28;20053;-61
2021/05/02 06:19:33;;;;;;;30.92;23.92;;;;;;;5.67;100.00;102344.34;5012066;28;20037;-64
2021/05/02 06:21:59;;;;;;;34.63;23.92;;;;;;;5.72;100.00;102336.53;5011441;28;20037;-63
2021/05/02 06:24:25;;;;;;;34.72;24.17;;;;;;;5.78;100.00;102353.97;5011880;28;20156;-61
2021/05/02 06:26:51;;;;;;;30.17;23.08;;;;;;;5.83;100.00;102343.44;5012038;28;20045;-64
2021/05/02 06:29:17;;;;;;;31.80;23.25;;;;;;;5.87;100.00;102339.34;5011832;28;20037;-63
2021/05/02 06:31:43;;;;;;;28.75;21.50;;;;;;;5.94;100.00;102344.97;5011698;28;20041;-63
2021/05/02 06:34:09;;;;;;;28.20;22.77;;;;;;;6.01;100.00;102340.53;5011753;28;20401;-64
2021/05/02 06:36:34;;;;;;;29.42;23.13;;;;;;;6.07;100.00;102344.41;5011653;28;20476;-63
2021/05/02 06:39:00;;;;;;;29.88;24.23;;;;;;;6.14;100.00;102351.69;5011717;28;20045;-63
2021/05/02 06:41:26;;;;;;;28.13;22.02;;;;;;;6.21;100.00;102352.66;5011579;28;20041;-63
2021/05/02 06:43:52;;;;;;;30.33;23.70;;;;;;;6.27;100.00;102353.84;5012101;28;20065;-63
2021/05/02 06:46:27;;;;;;;33.50;24.33;;;;;;;6.32;100.00;102360.41;5011480;28;20120;-63
2021/05/02 06:48:57;;;;;;;31.83;23.63;;;;;;;6.37;100.00;102361.75;5011627;28;20045;-63
2021/05/02 06:51:24;;;;;;;31.95;23.23;;;;;;;6.43;100.00;102361.06;5011465;28;20044;-63
2021/05/02 06:53:50;;;;;;;31.15;23.17;;;;;;;6.49;100.00;102363.03;5011355;28;20038;-63
2021/05/02 06:56:16;;;;;;;31.63;23.35;;;;;;;6.52;100.00;102370.81;5011337;28;20182;-64
2021/05/02 06:58:42;;;;;;;29.42;22.58;;;;;;;6.56;100.00;102364.00;5011260;28;20061;-62
2021/05/02 07:01:09;;;;;;;27.85;21.90;;;;;;;6.60;100.00;102362.66;5011372;28;20053;-62
2021/05/02 07:03:34;;;;;;;31.38;23.55;;;;;;;6.65;100.00;102365.66;5011242;28;20079;-63
2021/05/02 07:06:02;;;;;;;29.63;24.08;;;;;;;6.73;100.00;102372.91;5011136;28;20119;-61
2021/05/02 07:08:29;;;;;;;32.03;23.20;;;;;;;6.81;100.00;102368.28;5011319;28;20472;-62
2021/05/02 07:10:55;;;;;;;28.10;21.92;;;;;;;6.87;100.00;102370.28;5008938;28;20158;-64
2021/05/02 07:13:21;;;;;;;28.48;23.23;;;;;;;6.93;100.00;102372.25;5011095;28;20544;-63
2021/05/02 07:15:47;;;;;;;27.73;21.80;;;;;;;7.00;100.00;102366.97;5011113;28;20045;-63
2021/05/02 07:18:13;;;;;;;35.58;24.90;;;;;;;7.07;100.00;102369.78;5011174;28;20095;-64
2021/05/02 07:20:39;;;;;;;26.67;20.77;;;;;;;7.14;100.00;102376.19;5011252;28;20117;-62
2021/05/02 07:23:04;;;;;;;25.02;20.73;;;;;;;7.21;100.00;102371.72;5011006;28;20085;-62
2021/05/02 07:25:30;;;;;;;28.05;21.00;;;;;;;7.31;100.00;102372.31;5011011;28;20038;-63
2021/05/02 07:27:56;;;;;;;23.58;21.00;;;;;;;7.40;100.00;102373.91;5011164;28;20436;-65
2021/05/02 07:30:22;;;;;;;21.83;19.40;;;;;;;7.49;100.00;102375.56;5010989;28;20042;-62
2021/05/02 07:32:48;;;;;;;23.92;20.40;;;;;;;7.56;100.00;102376.50;5010897;28;20384;-60
2021/05/02 07:35:14;;;;;;;22.10;19.67;;;;;;;7.66;100.00;102375.38;5013831;28;20379;-63
2021/05/02 07:37:40;;;;;;;21.33;17.67;;;;;;;7.70;100.00;102369.38;5015237;28;20145;-61
2021/05/02 07:40:07;;;;;;;23.05;18.90;;;;;;;7.78;100.00;102373.88;5015506;28;20463;-63
2021/05/02 07:42:33;;;;;;;23.88;18.98;;;;;;;7.87;100.00;102372.78;5014920;28;20065;-62
2021/05/02 07:44:58;;;;;;;27.48;18.70;;;;;;;7.97;100.00;102373.31;5015135;28;20065;-62
2021/05/02 07:47:24;;;;;;;20.75;17.50;;;;;;;8.08;100.00;102372.03;5014883;28;20044;-65
2021/05/02 07:49:50;;;;;;;20.48;17.83;;;;;;;8.17;100.00;102373.63;5014868;28;20045;-63
2021/05/02 07:52:16;;;;;;;19.42;16.67;;;;;;;8.28;100.00;102375.00;5014719;28;20038;-62
2021/05/02 07:54:43;;;;;;;20.58;17.23;;;;;;;8.36;100.00;102372.22;5014658;28;20060;-64
2021/05/02 07:57:09;;;;;;;22.00;17.60;;;;;;;8.47;100.00;102374.44;5014661;28;20539;-64
2021/05/02 07:59:36;;;;;;;19.35;17.00;;;;;;;8.56;100.00;102378.75;5014585;28;20030;-65
2021/05/02 08:02:01;;;;;;;20.58;16.67;;;;;;;8.68;100.00;102377.25;5029781;28;20088;-64
2021/05/02 08:04:27;;;;;;;18.90;16.10;;;;;;;8.81;100.00;102375.69;5014586;28;20396;-64
2021/05/02 08:06:53;;;;;;;18.08;14.88;;;;;;;8.95;100.00;102374.78;5014440;28;20544;-63
2021/05/02 08:09:18;;;;;;;17.50;15.45;;;;;;;9.06;100.00;102379.72;5014463;28;20044;-64
2021/05/02 08:11:44;;;;;;;16.73;15.02;;;;;;;9.20;100.00;102370.66;5012066;28;20520;-62
2021/05/02 08:14:10;;;;;;;17.35;14.40;;;;;;;9.35;100.00;102376.84;5014613;28;20499;-63
2021/05/02 08:16:36;;;;;;;15.25;13.82;;;;;;;9.52;100.00;102371.94;5014329;28;20125;-65
2021/05/02 08:19:03;;;;;;;15.93;13.88;;;;;;;9.67;100.00;102371.84;5014579;28;20034;-64
2021/05/02 08:21:29;;;;;;;17.10;14.27;;;;;;;9.81;100.00;102362.72;5014283;28;20037;-63
2021/05/02 08:23:54;;;;;;;16.45;13.60;;;;;;;9.96;100.00;102371.63;5014200;28;20424;-61
2021/05/02 08:26:20;;;;;;;14.50;13.00;;;;;;;10.07;100.00;102372.13;5014045;28;20034;-66
2021/05/02 08:28:46;;;;;;;13.98;12.18;;;;;;;10.19;100.00;102359.56;5014089;28;20549;-63
2021/05/02 08:31:13;;;;;;;15.68;13.63;;;;;;;10.28;100.00;102374.78;5014137;28;20546;-63
2021/05/02 08:33:39;;;;;;;15.27;12.07;;;;;;;10.36;100.00;102369.13;5013976;28;20129;-63
2021/05/02 08:36:05;;;;;;;15.20;13.70;;;;;;;10.44;100.00;102368.97;5013913;28;20385;-62
2021/05/02 08:38:32;;;;;;;17.15;13.30;;;;;;;10.52;100.00;102376.13;5013916;28;20037;-63
2021/05/02 08:41:01;;;;;;;15.38;13.48;;;;;;;10.58;100.00;102370.69;5013758;28;20030;-65
2021/05/02 08:43:28;;;;;;;14.30;12.63;;;;;;;10.68;100.00;102372.22;5013807;28;20337;-62
2021/05/02 08:45:54;;;;;;;13.98;12.48;;;;;;;10.78;100.00;102375.41;5013257;28;20107;-63
2021/05/02 08:48:20;;;;;;;14.48;12.25;;;;;;;10.88;100.00;102370.38;5013732;28;20480;-64
2021/05/02 08:50:46;;;;;;;13.52;11.88;;;;;;;10.94;100.00;102364.09;5013617;28;20045;-62
2021/05/02 08:53:12;;;;;;;12.98;11.60;;;;;;;11.06;100.00;102378.81;5013559;28;20060;-61
2021/05/02 08:55:41;;;;;;;13.98;11.82;;;;;;;11.10;100.00;102371.88;5012453;28;20038;-63
2021/05/02 08:58:18;;;;;;;13.93;11.80;;;;;;;11.28;100.00;102375.88;5013459;28;20503;-63
2021/05/02 09:00:44;;;;;;;11.38;9.93;;;;;;;11.40;100.00;102379.69;5013548;28;20122;-63
2021/05/02 09:03:10;;;;;;;12.60;10.73;;;;;;;11.44;100.00;102383.69;5013340;28;20404;-64
2021/05/02 09:05:47;;;;;;;11.63;9.02;;;;;;;11.59;100.00;102384.31;5013301;28;20050;-64
2021/05/02 09:08:32;;;;;;;9.80;8.80;;;;;;;11.73;100.00;102377.78;5013471;28;20065;-64
2021/05/02 09:10:59;;;;;;;11.48;9.45;;;;;;;11.87;100.00;102375.06;5013156;28;20069;-63
2021/05/02 09:13:25;;;;;;;10.82;9.00;;;;;;;11.99;100.00;102373.38;5013234;28;20455;-62
2021/05/02 09:16:00;;;;;;;10.55;9.48;;;;;;;12.11;100.00;102381.75;5013180;28;20065;-63
2021/05/02 09:18:36;;;;;;;11.25;8.65;;;;;;;12.16;100.00;102380.06;5013253;28;20116;-63
2021/05/02 09:21:05;;;;;;;9.00;8.07;;;;;;;12.33;100.00;102374.94;5013199;28;20469;-63
2021/05/02 09:23:42;;;;;;;9.65;8.20;;;;;;;12.46;100.00;102379.50;5013055;28;20496;-70
2021/05/02 09:26:25;;;;;;;11.18;8.88;;;;;;;12.62;100.00;102379.03;5013229;28;20348;-62
2021/05/02 09:28:54;;;;;;;9.55;8.07;;;;;;;12.63;99.36;102381.53;5011878;28;20038;-63
2021/05/02 09:31:26;;;;;;;9.52;7.05;;;;;;;12.75;99.61;102378.13;5012870;28;20555;-64
2021/05/02 09:33:52;;;;;;;7.57;6.85;;;;;;;12.71;100.00;102377.72;5012897;28;20072;-62
2021/05/02 09:36:21;;;;;;;8.63;7.20;;;;;;;12.72;100.00;102367.59;5012816;28;20496;-64
2021/05/02 09:38:48;;;;;;;10.95;8.55;;;;;;;12.58;100.00;102378.63;5012764;28;20038;-62
2021/05/02 09:41:15;;;;;;;8.65;7.85;;;;;;;12.63;100.00;102380.72;5012597;28;20037;-62
2021/05/02 09:43:48;;;;;;;8.52;7.00;;;;;;;12.63;96.17;102376.06;5012726;28;20069;-65
2021/05/02 09:46:26;;;;;;;8.30;7.30;;;;;;;12.78;98.67;102378.53;5012311;28;20080;-63
2021/05/02 09:48:54;;;;;;;8.88;7.10;;;;;;;12.97;98.79;102377.56;5012680;28;20034;-61
2021/05/02 09:51:21;;;;;;;6.38;5.88;;;;;;;13.19;92.68;102369.00;5012391;28;20029;-65
2021/05/02 09:54:19;;;;;;;7.35;5.70;;;;;;;13.45;90.12;102368.81;5012203;28;20448;-64
2021/05/02 09:56:58;;;;;;;6.38;5.43;;;;;;;13.67;83.35;102376.63;5011323;28;20042;-62
2021/05/02 09:59:27;;;;;;;7.57;6.30;;;;;;;13.85;82.75;102362.94;5012402;28;20037;-63
2021/05/02 10:02:07;;;;;;;7.00;6.22;;;;;;;14.08;84.67;102368.63;5012218;28;20116;-63
2021/05/02 10:04:33;;;;;;;7.68;6.88;;;;;;;14.27;84.72;102365.88;5012134;28;20034;-63
2021/05/02 10:07:02;;;;;;;7.90;7.20;;;;;;;14.25;76.89;102373.50;5012101;28;20041;-63
2021/05/02 10:09:28;;;;;;;7.55;6.78;;;;;;;13.99;74.16;102375.47;5012133;28;20506;-63
2021/05/02 10:11:54;;;;;;;10.13;7.63;;;;;;;14.16;87.52;102370.22;5011839;28;20054;-63
2021/05/02 10:14:20;;;;;;;9.23;7.50;;;;;;;14.03;91.36;102373.94;5011885;28;20041;-65
2021/05/02 10:16:45;;;;;;;8.57;7.18;;;;;;;14.33;90.85;102375.94;5011844;28;20046;-64
2021/05/02 10:19:11;;;;;;;7.72;6.82;;;;;;;14.45;81.40;102368.66;5012122;28;20069;-63
2021/05/02 10:21:38;;;;;;;8.82;7.28;;;;;;;14.55;80.05;102368.91;5012001;28;20044;-64
2021/05/02 10:24:05;;;;;;;8.05;7.32;;;;;;;14.67;78.11;102372.56;5011962;28;20042;-65
2021/05/02 10:26:31;;;;;;;9.95;8.13;;;;;;;14.74;93.51;102373.31;5011791;28;20088;-62
2021/05/02 10:28:56;;;;;;;12.82;8.00;;;;;;;14.47;100.00;102364.59;5011778;28;20046;-64
2021/05/02 10:31:29;;;;;;;10.20;9.20;;;;;;;14.19;100.00;102369.75;5011587;28;20445;-61
2021/05/02 10:33:55;;;;;;;12.38;9.10;;;;;;;14.14;100.00;102378.69;5011694;28;20034;-61
2021/05/02 10:36:24;;;;;;;11.75;8.80;;;;;;;14.07;100.00;102377.94;5011722;28;20034;-64
2021/05/02 10:38:51;;;;;;;14.18;9.45;;;;;;;14.17;100.00;102378.22;5011863;28;20069;-63
2021/05/02 10:41:28;;;;;;;9.45;7.80;;;;;;;14.39;100.00;102364.84;5011612;28;20480;-63
2021/05/02 10:44:07;;;;;;;11.30;8.63;;;;;;;14.33;100.00;102376.78;5011450;28;20025;-63
2021/05/02 10:46:53;;;;;;;9.55;8.70;;;;;;;14.30;100.00;102365.41;5011509;28;20122;-65
2021/05/02 10:49:21;;;;;;;8.48;7.68;;;;;;;14.14;100.00;102372.34;5011510;28;20029;-62
2021/05/02 10:52:11;;;;;;;10.63;7.60;;;;;;;13.85;100.00;102366.53;5011257;28;20038;-63
2021/05/02 10:54:42;;;;;;;10.30;7.60;;;;;;;13.78;100.00;102364.91;5016040;28;20049;-65
2021/05/02 10:57:37;;;;;;;17.17;8.52;;;;;;;14.15;100.00;102369.38;5011451;28;20042;-62
2021/05/02 11:00:06;;;;;;;7.65;7.05;;;;;;;14.41;99.32;102373.75;5011310;28;20042;-62
2021/05/02 11:02:37;;;;;;;8.05;6.80;;;;;;;14.06;95.93;102370.75;5011207;28;20034;-63
2021/05/02 11:05:03;;;;;;;7.35;6.55;;;;;;;14.02;96.54;102364.03;5011282;28;20396;-64
2021/05/02 11:07:35;;;;;;;7.53;6.72;;;;;;;14.19;96.04;102375.25;5011045;28;20037;-61
2021/05/02 11:10:02;;;;;;;8.40;6.85;;;;;;;14.33;94.96;102362.19;5011272;28;20503;-63
2021/05/02 11:12:29;;;;;;;7.75;7.05;;;;;;;14.45;94.27;102363.97;5011228;28;20050;-65
2021/05/02 11:14:55;;;;;;;8.05;6.70;;;;;;;14.59;90.03;102367.41;5011167;28;20034;-65
2021/05/02 11:17:22;;;;;;;8.07;6.10;;;;;;;14.48;88.91;102368.19;5011076;28;20499;-62